sensor_id;sensor_type;location;lat;lon;timestamp;P1;durP1;ratioP1;P2;durP2;ratioP2
80381;SDS011;69692;55.820;37.490;2023-11-22T00:00:55;4.55;;;3.83;;
80381;SDS011;69692;55.820;37.490;2023-11-22T00:03:21;3.85;;;3.47;;
80381;SDS011;69692;55.820;37.490;2023-11-22T00:05:48;5.57;;;3.88;;
80381;SDS011;69692;55.820;37.490;2023-11-22T00:08:14;4.18;;;3.65;;
80381;SDS011;69692;55.820;37.490;2023-11-22T00:10:40;5.80;;;3.90;;
80381;SDS011;69692;55.820;37.490;2023-11-22T00:13:05;5.47;;;4.80;;
80381;SDS011;69692;55.820;37.490;2023-11-22T00:15:31;3.88;;;3.47;;
80381;SDS011;69692;55.820;37.490;2023-11-22T00:17:57;4.93;;;3.70;;
80381;SDS011;69692;55.820;37.490;2023-11-22T00:20:23;7.90;;;3.90;;
80381;SDS011;69692;55.820;37.490;2023-11-22T00:22:49;6.53;;;4.30;;
80381;SDS011;69692;55.820;37.490;2023-11-22T00:25:15;6.00;;;4.82;;
80381;SDS011;69692;55.820;37.490;2023-11-22T00:27:41;7.38;;;3.78;;
80381;SDS011;69692;55.820;37.490;2023-11-22T00:30:07;4.63;;;3.20;;
80381;SDS011;69692;55.820;37.490;2023-11-22T00:32:35;6.28;;;4.60;;
80381;SDS011;69692;55.820;37.490;2023-11-22T00:35:02;5.15;;;4.35;;
80381;SDS011;69692;55.820;37.490;2023-11-22T00:37:29;6.13;;;4.60;;
80381;SDS011;69692;55.820;37.490;2023-11-22T00:39:55;5.85;;;4.28;;
80381;SDS011;69692;55.820;37.490;2023-11-22T00:42:21;6.38;;;4.20;;
80381;SDS011;69692;55.820;37.490;2023-11-22T00:44:47;7.15;;;4.18;;
80381;SDS011;69692;55.820;37.490;2023-11-22T00:47:13;5.78;;;4.72;;
80381;SDS011;69692;55.820;37.490;2023-11-22T00:49:41;5.25;;;4.75;;
80381;SDS011;69692;55.820;37.490;2023-11-22T00:52:07;5.70;;;4.13;;
80381;SDS011;69692;55.820;37.490;2023-11-22T00:54:34;4.53;;;3.10;;
80381;SDS011;69692;55.820;37.490;2023-11-22T00:57:00;7.10;;;4.93;;
80381;SDS011;69692;55.820;37.490;2023-11-22T00:59:26;6.57;;;3.92;;
80381;SDS011;69692;55.820;37.490;2023-11-22T01:01:52;5.35;;;4.32;;
80381;SDS011;69692;55.820;37.490;2023-11-22T01:04:17;5.30;;;4.28;;
80381;SDS011;69692;55.820;37.490;2023-11-22T01:06:43;4.90;;;3.97;;
80381;SDS011;69692;55.820;37.490;2023-11-22T01:09:10;8.20;;;4.63;;
80381;SDS011;69692;55.820;37.490;2023-11-22T01:11:39;7.00;;;4.32;;
80381;SDS011;69692;55.820;37.490;2023-11-22T01:14:05;5.30;;;3.92;;
80381;SDS011;69692;55.820;37.490;2023-11-22T01:16:31;8.48;;;4.93;;
80381;SDS011;69692;55.820;37.490;2023-11-22T01:18:57;6.13;;;4.50;;
80381;SDS011;69692;55.820;37.490;2023-11-22T01:21:23;5.03;;;3.92;;
80381;SDS011;69692;55.820;37.490;2023-11-22T01:23:49;4.97;;;4.45;;
80381;SDS011;69692;55.820;37.490;2023-11-22T01:26:15;5.55;;;4.13;;
80381;SDS011;69692;55.820;37.490;2023-11-22T01:28:42;5.60;;;3.85;;
80381;SDS011;69692;55.820;37.490;2023-11-22T01:31:10;6.43;;;4.57;;
80381;SDS011;69692;55.820;37.490;2023-11-22T01:33:38;6.22;;;3.47;;
80381;SDS011;69692;55.820;37.490;2023-11-22T01:36:04;5.38;;;3.95;;
80381;SDS011;69692;55.820;37.490;2023-11-22T01:38:30;4.80;;;4.40;;
80381;SDS011;69692;55.820;37.490;2023-11-22T01:40:56;4.60;;;4.13;;
80381;SDS011;69692;55.820;37.490;2023-11-22T01:43:22;5.40;;;3.72;;
80381;SDS011;69692;55.820;37.490;2023-11-22T01:45:53;5.88;;;4.28;;
80381;SDS011;69692;55.820;37.490;2023-11-22T01:48:20;5.68;;;3.55;;
80381;SDS011;69692;55.820;37.490;2023-11-22T01:50:46;6.65;;;4.10;;
80381;SDS011;69692;55.820;37.490;2023-11-22T01:53:13;6.80;;;3.75;;
80381;SDS011;69692;55.820;37.490;2023-11-22T01:55:42;5.30;;;4.35;;
80381;SDS011;69692;55.820;37.490;2023-11-22T01:58:09;7.35;;;4.75;;
80381;SDS011;69692;55.820;37.490;2023-11-22T02:00:55;6.03;;;3.42;;
80381;SDS011;69692;55.820;37.490;2023-11-22T02:03:21;4.55;;;3.47;;
80381;SDS011;69692;55.820;37.490;2023-11-22T02:05:46;5.55;;;3.85;;
80381;SDS011;69692;55.820;37.490;2023-11-22T02:08:12;6.70;;;4.25;;
80381;SDS011;69692;55.820;37.490;2023-11-22T02:10:39;5.18;;;3.30;;
80381;SDS011;69692;55.820;37.490;2023-11-22T02:13:07;6.07;;;3.95;;
80381;SDS011;69692;55.820;37.490;2023-11-22T02:15:34;6.57;;;3.55;;
80381;SDS011;69692;55.820;37.490;2023-11-22T02:18:04;3.97;;;2.60;;
80381;SDS011;69692;55.820;37.490;2023-11-22T02:20:32;6.43;;;4.20;;
80381;SDS011;69692;55.820;37.490;2023-11-22T02:23:02;6.00;;;3.55;;
80381;SDS011;69692;55.820;37.490;2023-11-22T02:25:34;6.65;;;3.80;;
80381;SDS011;69692;55.820;37.490;2023-11-22T02:28:01;4.53;;;3.78;;
80381;SDS011;69692;55.820;37.490;2023-11-22T02:30:28;5.75;;;3.92;;
80381;SDS011;69692;55.820;37.490;2023-11-22T02:32:53;5.03;;;3.17;;
80381;SDS011;69692;55.820;37.490;2023-11-22T02:35:19;5.32;;;3.63;;
80381;SDS011;69692;55.820;37.490;2023-11-22T02:37:46;4.22;;;3.38;;
80381;SDS011;69692;55.820;37.490;2023-11-22T02:42:50;5.68;;;4.00;;
80381;SDS011;69692;55.820;37.490;2023-11-22T02:45:17;5.68;;;3.42;;
80381;SDS011;69692;55.820;37.490;2023-11-22T02:47:44;7.55;;;3.83;;
80381;SDS011;69692;55.820;37.490;2023-11-22T02:50:13;4.07;;;3.05;;
80381;SDS011;69692;55.820;37.490;2023-11-22T02:52:39;4.38;;;2.88;;
80381;SDS011;69692;55.820;37.490;2023-11-22T02:55:05;5.25;;;3.78;;
80381;SDS011;69692;55.820;37.490;2023-11-22T02:57:32;5.07;;;3.72;;
80381;SDS011;69692;55.820;37.490;2023-11-22T02:59:58;4.90;;;3.60;;
80381;SDS011;69692;55.820;37.490;2023-11-22T03:02:24;5.15;;;3.58;;
80381;SDS011;69692;55.820;37.490;2023-11-22T03:04:50;5.13;;;3.17;;
80381;SDS011;69692;55.820;37.490;2023-11-22T03:07:16;2.97;;;2.70;;
80381;SDS011;69692;55.820;37.490;2023-11-22T03:09:43;5.22;;;3.00;;
80381;SDS011;69692;55.820;37.490;2023-11-22T03:12:12;6.60;;;3.95;;
80381;SDS011;69692;55.820;37.490;2023-11-22T03:14:38;4.47;;;3.88;;
80381;SDS011;69692;55.820;37.490;2023-11-22T03:17:05;5.22;;;3.38;;
80381;SDS011;69692;55.820;37.490;2023-11-22T03:19:32;6.93;;;3.78;;
80381;SDS011;69692;55.820;37.490;2023-11-22T03:22:02;6.50;;;3.22;;
80381;SDS011;69692;55.820;37.490;2023-11-22T03:24:29;5.35;;;3.47;;
80381;SDS011;69692;55.820;37.490;2023-11-22T03:26:56;5.65;;;3.63;;
80381;SDS011;69692;55.820;37.490;2023-11-22T03:29:25;4.30;;;3.33;;
80381;SDS011;69692;55.820;37.490;2023-11-22T03:31:51;5.95;;;4.07;;
80381;SDS011;69692;55.820;37.490;2023-11-22T03:34:19;5.35;;;3.58;;
80381;SDS011;69692;55.820;37.490;2023-11-22T03:36:45;6.15;;;3.55;;
80381;SDS011;69692;55.820;37.490;2023-11-22T03:39:11;6.10;;;4.07;;
80381;SDS011;69692;55.820;37.490;2023-11-22T03:41:37;4.20;;;3.15;;
80381;SDS011;69692;55.820;37.490;2023-11-22T03:44:03;5.28;;;3.63;;
80381;SDS011;69692;55.820;37.490;2023-11-22T03:46:37;4.55;;;3.72;;
80381;SDS011;69692;55.820;37.490;2023-11-22T03:49:04;3.83;;;3.00;;
80381;SDS011;69692;55.820;37.490;2023-11-22T03:51:32;5.32;;;4.20;;
80381;SDS011;69692;55.820;37.490;2023-11-22T03:53:59;4.47;;;2.38;;
80381;SDS011;69692;55.820;37.490;2023-11-22T03:56:26;7.35;;;4.03;;
80381;SDS011;69692;55.820;37.490;2023-11-22T03:58:53;5.78;;;4.22;;
80381;SDS011;69692;55.820;37.490;2023-11-22T04:01:18;6.00;;;3.97;;
80381;SDS011;69692;55.820;37.490;2023-11-22T04:03:46;7.70;;;4.10;;
80381;SDS011;69692;55.820;37.490;2023-11-22T04:06:16;5.60;;;3.97;;
80381;SDS011;69692;55.820;37.490;2023-11-22T04:08:43;6.72;;;4.57;;
80381;SDS011;69692;55.820;37.490;2023-11-22T04:11:09;9.95;;;4.55;;
80381;SDS011;69692;55.820;37.490;2023-11-22T04:13:36;6.30;;;4.20;;
80381;SDS011;69692;55.820;37.490;2023-11-22T04:16:02;7.03;;;4.22;;
80381;SDS011;69692;55.820;37.490;2023-11-22T04:18:28;5.20;;;3.65;;
80381;SDS011;69692;55.820;37.490;2023-11-22T04:20:54;6.30;;;4.28;;
80381;SDS011;69692;55.820;37.490;2023-11-22T04:23:20;6.97;;;4.53;;
80381;SDS011;69692;55.820;37.490;2023-11-22T04:25:46;8.30;;;4.53;;
80381;SDS011;69692;55.820;37.490;2023-11-22T04:28:15;5.00;;;3.20;;
80381;SDS011;69692;55.820;37.490;2023-11-22T04:30:41;5.90;;;4.38;;
80381;SDS011;69692;55.820;37.490;2023-11-22T04:33:07;4.72;;;3.75;;
80381;SDS011;69692;55.820;37.490;2023-11-22T04:35:32;6.85;;;4.07;;
80381;SDS011;69692;55.820;37.490;2023-11-22T04:38:02;5.63;;;3.67;;
80381;SDS011;69692;55.820;37.490;2023-11-22T04:40:29;4.18;;;3.38;;
80381;SDS011;69692;55.820;37.490;2023-11-22T04:42:55;6.57;;;3.08;;
80381;SDS011;69692;55.820;37.490;2023-11-22T04:45:21;5.00;;;3.63;;
80381;SDS011;69692;55.820;37.490;2023-11-22T04:47:47;4.93;;;3.53;;
80381;SDS011;69692;55.820;37.490;2023-11-22T04:50:12;7.00;;;3.75;;
80381;SDS011;69692;55.820;37.490;2023-11-22T04:52:39;6.30;;;3.63;;
80381;SDS011;69692;55.820;37.490;2023-11-22T04:55:05;7.88;;;3.92;;
80381;SDS011;69692;55.820;37.490;2023-11-22T04:57:31;6.40;;;3.50;;
80381;SDS011;69692;55.820;37.490;2023-11-22T04:59:56;4.40;;;3.50;;
80381;SDS011;69692;55.820;37.490;2023-11-22T05:02:22;3.60;;;3.05;;
80381;SDS011;69692;55.820;37.490;2023-11-22T05:04:48;6.88;;;3.58;;
80381;SDS011;69692;55.820;37.490;2023-11-22T05:07:15;5.30;;;3.25;;
80381;SDS011;69692;55.820;37.490;2023-11-22T05:09:41;5.93;;;3.65;;
80381;SDS011;69692;55.820;37.490;2023-11-22T05:12:09;6.15;;;4.20;;
80381;SDS011;69692;55.820;37.490;2023-11-22T05:14:36;8.13;;;3.22;;
80381;SDS011;69692;55.820;37.490;2023-11-22T05:17:02;6.55;;;2.75;;
80381;SDS011;69692;55.820;37.490;2023-11-22T05:19:29;6.80;;;3.75;;
80381;SDS011;69692;55.820;37.490;2023-11-22T05:21:55;5.45;;;2.47;;
80381;SDS011;69692;55.820;37.490;2023-11-22T05:24:21;4.70;;;3.22;;
80381;SDS011;69692;55.820;37.490;2023-11-22T05:26:47;4.57;;;2.95;;
80381;SDS011;69692;55.820;37.490;2023-11-22T05:29:13;3.85;;;3.45;;
80381;SDS011;69692;55.820;37.490;2023-11-22T05:31:39;5.68;;;3.72;;
80381;SDS011;69692;55.820;37.490;2023-11-22T05:34:04;4.75;;;3.05;;
80381;SDS011;69692;55.820;37.490;2023-11-22T05:36:30;4.43;;;3.22;;
80381;SDS011;69692;55.820;37.490;2023-11-22T05:38:56;5.03;;;3.25;;
80381;SDS011;69692;55.820;37.490;2023-11-22T05:41:25;5.03;;;2.53;;
80381;SDS011;69692;55.820;37.490;2023-11-22T05:43:52;3.15;;;2.45;;
80381;SDS011;69692;55.820;37.490;2023-11-22T05:46:22;3.67;;;2.58;;
80381;SDS011;69692;55.820;37.490;2023-11-22T05:48:51;4.22;;;2.95;;
80381;SDS011;69692;55.820;37.490;2023-11-22T05:51:17;3.50;;;2.83;;
80381;SDS011;69692;55.820;37.490;2023-11-22T05:53:43;4.65;;;2.75;;
80381;SDS011;69692;55.820;37.490;2023-11-22T05:56:09;4.35;;;2.80;;
80381;SDS011;69692;55.820;37.490;2023-11-22T05:58:35;3.00;;;2.25;;
80381;SDS011;69692;55.820;37.490;2023-11-22T06:01:05;2.92;;;2.50;;
80381;SDS011;69692;55.820;37.490;2023-11-22T06:03:32;4.22;;;3.38;;
80381;SDS011;69692;55.820;37.490;2023-11-22T06:05:58;2.95;;;2.67;;
80381;SDS011;69692;55.820;37.490;2023-11-22T06:08:24;3.58;;;3.28;;
80381;SDS011;69692;55.820;37.490;2023-11-22T06:10:50;5.30;;;2.90;;
80381;SDS011;69692;55.820;37.490;2023-11-22T06:13:18;3.45;;;2.65;;
80381;SDS011;69692;55.820;37.490;2023-11-22T06:15:45;4.65;;;3.00;;
80381;SDS011;69692;55.820;37.490;2023-11-22T06:18:11;5.40;;;2.60;;
80381;SDS011;69692;55.820;37.490;2023-11-22T06:20:39;3.80;;;2.50;;
80381;SDS011;69692;55.820;37.490;2023-11-22T06:23:05;3.30;;;2.85;;
80381;SDS011;69692;55.820;37.490;2023-11-22T06:25:32;5.97;;;2.28;;
80381;SDS011;69692;55.820;37.490;2023-11-22T06:27:58;2.58;;;2.38;;
80381;SDS011;69692;55.820;37.490;2023-11-22T06:30:24;3.10;;;2.60;;
80381;SDS011;69692;55.820;37.490;2023-11-22T06:32:51;2.60;;;2.10;;
80381;SDS011;69692;55.820;37.490;2023-11-22T06:35:17;3.08;;;2.15;;
80381;SDS011;69692;55.820;37.490;2023-11-22T06:37:43;2.38;;;2.10;;
80381;SDS011;69692;55.820;37.490;2023-11-22T06:40:10;2.47;;;2.10;;
80381;SDS011;69692;55.820;37.490;2023-11-22T06:42:43;2.80;;;2.53;;
80381;SDS011;69692;55.820;37.490;2023-11-22T06:45:09;3.53;;;3.22;;
80381;SDS011;69692;55.820;37.490;2023-11-22T06:47:38;2.47;;;2.03;;
80381;SDS011;69692;55.820;37.490;2023-11-22T06:50:05;4.38;;;2.42;;
80381;SDS011;69692;55.820;37.490;2023-11-22T06:52:35;2.92;;;2.15;;
80381;SDS011;69692;55.820;37.490;2023-11-22T06:55:05;4.82;;;2.63;;
80381;SDS011;69692;55.820;37.490;2023-11-22T06:57:34;3.10;;;2.58;;
80381;SDS011;69692;55.820;37.490;2023-11-22T07:00:01;2.78;;;2.22;;
80381;SDS011;69692;55.820;37.490;2023-11-22T07:02:32;3.28;;;2.28;;
80381;SDS011;69692;55.820;37.490;2023-11-22T07:04:58;3.33;;;3.03;;
80381;SDS011;69692;55.820;37.490;2023-11-22T07:07:24;2.83;;;2.53;;
80381;SDS011;69692;55.820;37.490;2023-11-22T07:09:51;3.20;;;2.22;;
80381;SDS011;69692;55.820;37.490;2023-11-22T07:12:16;3.10;;;2.85;;
80381;SDS011;69692;55.820;37.490;2023-11-22T07:14:44;4.07;;;2.85;;
80381;SDS011;69692;55.820;37.490;2023-11-22T07:17:10;2.70;;;2.33;;
80381;SDS011;69692;55.820;37.490;2023-11-22T07:19:36;2.50;;;2.28;;
80381;SDS011;69692;55.820;37.490;2023-11-22T07:22:04;2.50;;;2.30;;
80381;SDS011;69692;55.820;37.490;2023-11-22T07:24:42;2.58;;;2.17;;
80381;SDS011;69692;55.820;37.490;2023-11-22T07:27:10;2.28;;;2.08;;
80381;SDS011;69692;55.820;37.490;2023-11-22T07:29:43;2.40;;;2.17;;
80381;SDS011;69692;55.820;37.490;2023-11-22T07:32:09;2.88;;;1.27;;
80381;SDS011;69692;55.820;37.490;2023-11-22T07:34:36;3.05;;;2.05;;
80381;SDS011;69692;55.820;37.490;2023-11-22T07:37:03;3.38;;;3.08;;
80381;SDS011;69692;55.820;37.490;2023-11-22T07:39:29;2.60;;;2.35;;
80381;SDS011;69692;55.820;37.490;2023-11-22T07:41:55;9.20;;;2.70;;
80381;SDS011;69692;55.820;37.490;2023-11-22T07:44:22;3.25;;;2.95;;
80381;SDS011;69692;55.820;37.490;2023-11-22T07:46:49;3.22;;;2.95;;
80381;SDS011;69692;55.820;37.490;2023-11-22T07:49:17;2.75;;;2.15;;
80381;SDS011;69692;55.820;37.490;2023-11-22T07:51:44;3.72;;;2.35;;
80381;SDS011;69692;55.820;37.490;2023-11-22T07:54:20;3.05;;;2.75;;
80381;SDS011;69692;55.820;37.490;2023-11-22T07:56:48;2.63;;;2.33;;
80381;SDS011;69692;55.820;37.490;2023-11-22T07:59:15;2.92;;;2.25;;
80381;SDS011;69692;55.820;37.490;2023-11-22T08:01:44;2.42;;;1.42;;
80381;SDS011;69692;55.820;37.490;2023-11-22T08:04:13;3.63;;;2.85;;
80381;SDS011;69692;55.820;37.490;2023-11-22T08:06:39;3.45;;;3.10;;
80381;SDS011;69692;55.820;37.490;2023-11-22T08:09:06;3.05;;;2.40;;
80381;SDS011;69692;55.820;37.490;2023-11-22T08:11:34;2.50;;;2.30;;
80381;SDS011;69692;55.820;37.490;2023-11-22T08:14:01;4.07;;;2.38;;
80381;SDS011;69692;55.820;37.490;2023-11-22T08:16:30;3.00;;;2.65;;
80381;SDS011;69692;55.820;37.490;2023-11-22T08:18:58;3.35;;;2.40;;
80381;SDS011;69692;55.820;37.490;2023-11-22T08:21:23;3.47;;;3.15;;
80381;SDS011;69692;55.820;37.490;2023-11-22T08:23:50;4.45;;;2.38;;
80381;SDS011;69692;55.820;37.490;2023-11-22T08:26:16;4.93;;;2.35;;
80381;SDS011;69692;55.820;37.490;2023-11-22T08:28:42;2.38;;;2.17;;
80381;SDS011;69692;55.820;37.490;2023-11-22T08:31:08;2.38;;;1.98;;
80381;SDS011;69692;55.820;37.490;2023-11-22T08:33:37;3.15;;;2.80;;
80381;SDS011;69692;55.820;37.490;2023-11-22T08:36:07;4.10;;;2.83;;
80381;SDS011;69692;55.820;37.490;2023-11-22T08:38:37;3.70;;;2.92;;
80381;SDS011;69692;55.820;37.490;2023-11-22T08:41:08;3.92;;;3.50;;
80381;SDS011;69692;55.820;37.490;2023-11-22T08:43:39;3.78;;;2.88;;
80381;SDS011;69692;55.820;37.490;2023-11-22T08:46:05;3.78;;;2.90;;
80381;SDS011;69692;55.820;37.490;2023-11-22T08:48:32;3.97;;;2.97;;
80381;SDS011;69692;55.820;37.490;2023-11-22T08:50:59;4.05;;;3.58;;
80381;SDS011;69692;55.820;37.490;2023-11-22T08:53:26;3.53;;;2.78;;
80381;SDS011;69692;55.820;37.490;2023-11-22T08:55:52;3.00;;;2.70;;
80381;SDS011;69692;55.820;37.490;2023-11-22T08:58:21;3.70;;;2.80;;
80381;SDS011;69692;55.820;37.490;2023-11-22T09:00:48;7.60;;;3.42;;
80381;SDS011;69692;55.820;37.490;2023-11-22T09:03:14;4.32;;;3.00;;
80381;SDS011;69692;55.820;37.490;2023-11-22T09:05:43;3.20;;;1.80;;
80381;SDS011;69692;55.820;37.490;2023-11-22T09:08:09;3.72;;;2.65;;
80381;SDS011;69692;55.820;37.490;2023-11-22T09:10:39;2.83;;;2.60;;
80381;SDS011;69692;55.820;37.490;2023-11-22T09:13:09;2.83;;;2.35;;
80381;SDS011;69692;55.820;37.490;2023-11-22T09:15:36;3.03;;;2.55;;
80381;SDS011;69692;55.820;37.490;2023-11-22T09:18:04;2.72;;;2.42;;
80381;SDS011;69692;55.820;37.490;2023-11-22T09:20:32;4.60;;;3.17;;
80381;SDS011;69692;55.820;37.490;2023-11-22T09:22:58;4.57;;;2.53;;
80381;SDS011;69692;55.820;37.490;2023-11-22T09:25:25;2.88;;;1.67;;
80381;SDS011;69692;55.820;37.490;2023-11-22T09:27:54;3.30;;;2.63;;
80381;SDS011;69692;55.820;37.490;2023-11-22T09:30:22;2.97;;;2.55;;
80381;SDS011;69692;55.820;37.490;2023-11-22T09:33:05;2.85;;;2.50;;
80381;SDS011;69692;55.820;37.490;2023-11-22T09:35:33;2.60;;;2.40;;
80381;SDS011;69692;55.820;37.490;2023-11-22T09:37:59;4.35;;;2.92;;
80381;SDS011;69692;55.820;37.490;2023-11-22T09:40:26;4.00;;;2.95;;
80381;SDS011;69692;55.820;37.490;2023-11-22T09:42:58;3.50;;;3.20;;
80381;SDS011;69692;55.820;37.490;2023-11-22T09:45:26;2.50;;;2.30;;
80381;SDS011;69692;55.820;37.490;2023-11-22T09:47:52;4.13;;;2.45;;
80381;SDS011;69692;55.820;37.490;2023-11-22T09:50:19;4.60;;;2.88;;
80381;SDS011;69692;55.820;37.490;2023-11-22T09:52:50;2.97;;;2.78;;
80381;SDS011;69692;55.820;37.490;2023-11-22T09:55:20;3.35;;;3.00;;
80381;SDS011;69692;55.820;37.490;2023-11-22T09:57:49;4.20;;;2.92;;
80381;SDS011;69692;55.820;37.490;2023-11-22T10:00:16;3.63;;;3.00;;
80381;SDS011;69692;55.820;37.490;2023-11-22T10:02:44;2.83;;;2.63;;
80381;SDS011;69692;55.820;37.490;2023-11-22T10:05:10;2.28;;;1.58;;
80381;SDS011;69692;55.820;37.490;2023-11-22T10:07:37;3.88;;;2.85;;
80381;SDS011;69692;55.820;37.490;2023-11-22T10:10:04;2.40;;;2.00;;
80381;SDS011;69692;55.820;37.490;2023-11-22T10:12:32;3.92;;;2.83;;
80381;SDS011;69692;55.820;37.490;2023-11-22T10:15:14;2.75;;;1.88;;
80381;SDS011;69692;55.820;37.490;2023-11-22T10:18:02;2.70;;;2.30;;
80381;SDS011;69692;55.820;37.490;2023-11-22T10:20:37;3.90;;;2.67;;
80381;SDS011;69692;55.820;37.490;2023-11-22T10:23:14;2.63;;;1.52;;
80381;SDS011;69692;55.820;37.490;2023-11-22T10:25:43;6.35;;;3.92;;
80381;SDS011;69692;55.820;37.490;2023-11-22T10:28:13;3.40;;;2.65;;
80381;SDS011;69692;55.820;37.490;2023-11-22T10:30:39;2.67;;;2.38;;
80381;SDS011;69692;55.820;37.490;2023-11-22T10:33:09;3.05;;;2.75;;
80381;SDS011;69692;55.820;37.490;2023-11-22T10:35:42;2.75;;;2.55;;
80381;SDS011;69692;55.820;37.490;2023-11-22T10:38:14;3.60;;;2.78;;
80381;SDS011;69692;55.820;37.490;2023-11-22T10:40:41;4.20;;;2.65;;
80381;SDS011;69692;55.820;37.490;2023-11-22T10:43:11;3.83;;;2.65;;
80381;SDS011;69692;55.820;37.490;2023-11-22T10:45:37;4.65;;;3.13;;
80381;SDS011;69692;55.820;37.490;2023-11-22T10:48:05;4.15;;;2.88;;
80381;SDS011;69692;55.820;37.490;2023-11-22T10:50:35;3.63;;;2.40;;
80381;SDS011;69692;55.820;37.490;2023-11-22T10:53:04;3.70;;;3.08;;
80381;SDS011;69692;55.820;37.490;2023-11-22T10:55:33;4.28;;;2.85;;
80381;SDS011;69692;55.820;37.490;2023-11-22T10:58:03;2.67;;;2.33;;
80381;SDS011;69692;55.820;37.490;2023-11-22T11:00:31;4.32;;;2.92;;
80381;SDS011;69692;55.820;37.490;2023-11-22T11:03:03;5.32;;;2.67;;
80381;SDS011;69692;55.820;37.490;2023-11-22T11:05:36;4.00;;;2.38;;
80381;SDS011;69692;55.820;37.490;2023-11-22T11:10:42;4.13;;;2.28;;
80381;SDS011;69692;55.820;37.490;2023-11-22T11:13:09;3.03;;;2.63;;
80381;SDS011;69692;55.820;37.490;2023-11-22T11:15:37;3.55;;;3.08;;
80381;SDS011;69692;55.820;37.490;2023-11-22T11:18:05;4.55;;;2.63;;
80381;SDS011;69692;55.820;37.490;2023-11-22T11:20:32;3.42;;;3.05;;
80381;SDS011;69692;55.820;37.490;2023-11-22T11:23:12;3.72;;;2.90;;
80381;SDS011;69692;55.820;37.490;2023-11-22T11:25:41;3.17;;;2.70;;
80381;SDS011;69692;55.820;37.490;2023-11-22T11:28:11;3.20;;;2.50;;
80381;SDS011;69692;55.820;37.490;2023-11-22T11:30:44;3.33;;;2.53;;
80381;SDS011;69692;55.820;37.490;2023-11-22T11:33:12;4.03;;;3.17;;
80381;SDS011;69692;55.820;37.490;2023-11-22T11:35:47;2.15;;;1.92;;
80381;SDS011;69692;55.820;37.490;2023-11-22T11:38:14;3.75;;;2.78;;
80381;SDS011;69692;55.820;37.490;2023-11-22T11:40:43;4.20;;;3.00;;
80381;SDS011;69692;55.820;37.490;2023-11-22T11:43:11;3.75;;;2.63;;
80381;SDS011;69692;55.820;37.490;2023-11-22T11:45:41;3.35;;;2.35;;
80381;SDS011;69692;55.820;37.490;2023-11-22T11:48:15;3.25;;;2.58;;
80381;SDS011;69692;55.820;37.490;2023-11-22T11:50:42;3.22;;;2.55;;
80381;SDS011;69692;55.820;37.490;2023-11-22T11:53:11;4.85;;;2.33;;
80381;SDS011;69692;55.820;37.490;2023-11-22T11:55:37;3.03;;;2.65;;
80381;SDS011;69692;55.820;37.490;2023-11-22T11:58:04;3.30;;;2.75;;
80381;SDS011;69692;55.820;37.490;2023-11-22T12:00:38;4.40;;;2.67;;
80381;SDS011;69692;55.820;37.490;2023-11-22T12:03:07;4.35;;;3.85;;
80381;SDS011;69692;55.820;37.490;2023-11-22T12:05:37;3.10;;;2.47;;
80381;SDS011;69692;55.820;37.490;2023-11-22T12:08:04;3.88;;;2.85;;
80381;SDS011;69692;55.820;37.490;2023-11-22T12:10:30;3.67;;;2.55;;
80381;SDS011;69692;55.820;37.490;2023-11-22T12:12:57;5.38;;;3.03;;
80381;SDS011;69692;55.820;37.490;2023-11-22T12:15:25;3.67;;;2.75;;
80381;SDS011;69692;55.820;37.490;2023-11-22T12:17:51;5.53;;;3.65;;
80381;SDS011;69692;55.820;37.490;2023-11-22T12:20:20;4.45;;;2.75;;
80381;SDS011;69692;55.820;37.490;2023-11-22T12:22:47;4.20;;;3.05;;
80381;SDS011;69692;55.820;37.490;2023-11-22T12:25:13;6.20;;;2.97;;
80381;SDS011;69692;55.820;37.490;2023-11-22T12:27:42;4.03;;;2.85;;
80381;SDS011;69692;55.820;37.490;2023-11-22T12:30:09;5.00;;;3.53;;
80381;SDS011;69692;55.820;37.490;2023-11-22T12:33:00;3.70;;;2.65;;
80381;SDS011;69692;55.820;37.490;2023-11-22T12:35:30;2.58;;;2.35;;
80381;SDS011;69692;55.820;37.490;2023-11-22T12:38:01;5.25;;;3.63;;
80381;SDS011;69692;55.820;37.490;2023-11-22T12:40:31;5.40;;;2.95;;
80381;SDS011;69692;55.820;37.490;2023-11-22T12:42:59;3.58;;;3.13;;
80381;SDS011;69692;55.820;37.490;2023-11-22T12:45:27;3.28;;;2.80;;
80381;SDS011;69692;55.820;37.490;2023-11-22T12:47:55;4.05;;;1.75;;
80381;SDS011;69692;55.820;37.490;2023-11-22T12:50:35;3.78;;;3.42;;
80381;SDS011;69692;55.820;37.490;2023-11-22T12:53:11;3.10;;;2.58;;
80381;SDS011;69692;55.820;37.490;2023-11-22T12:55:45;4.25;;;2.92;;
80381;SDS011;69692;55.820;37.490;2023-11-22T12:58:13;4.40;;;3.38;;
80381;SDS011;69692;55.820;37.490;2023-11-22T13:00:39;4.05;;;3.17;;
80381;SDS011;69692;55.820;37.490;2023-11-22T13:03:09;4.50;;;3.60;;
80381;SDS011;69692;55.820;37.490;2023-11-22T13:05:39;2.63;;;2.42;;
80381;SDS011;69692;55.820;37.490;2023-11-22T13:08:08;5.43;;;2.88;;
80381;SDS011;69692;55.820;37.490;2023-11-22T13:10:45;4.15;;;3.05;;
80381;SDS011;69692;55.820;37.490;2023-11-22T13:13:13;5.90;;;3.42;;
80381;SDS011;69692;55.820;37.490;2023-11-22T13:15:40;4.25;;;3.05;;
80381;SDS011;69692;55.820;37.490;2023-11-22T13:18:06;4.32;;;3.92;;
80381;SDS011;69692;55.820;37.490;2023-11-22T13:20:34;6.15;;;3.05;;
80381;SDS011;69692;55.820;37.490;2023-11-22T13:23:00;4.07;;;3.15;;
80381;SDS011;69692;55.820;37.490;2023-11-22T13:25:28;5.38;;;3.28;;
80381;SDS011;69692;55.820;37.490;2023-11-22T13:27:54;4.50;;;3.00;;
80381;SDS011;69692;55.820;37.490;2023-11-22T13:30:22;4.93;;;2.88;;
80381;SDS011;69692;55.820;37.490;2023-11-22T13:32:49;4.90;;;2.58;;
80381;SDS011;69692;55.820;37.490;2023-11-22T13:35:16;3.08;;;2.78;;
80381;SDS011;69692;55.820;37.490;2023-11-22T13:37:44;5.70;;;4.15;;
80381;SDS011;69692;55.820;37.490;2023-11-22T13:40:14;3.33;;;3.03;;
80381;SDS011;69692;55.820;37.490;2023-11-22T13:45:09;3.83;;;3.42;;
80381;SDS011;69692;55.820;37.490;2023-11-22T13:47:35;6.88;;;3.08;;
80381;SDS011;69692;55.820;37.490;2023-11-22T13:50:01;4.43;;;3.25;;
80381;SDS011;69692;55.820;37.490;2023-11-22T13:52:29;3.85;;;2.55;;
80381;SDS011;69692;55.820;37.490;2023-11-22T13:54:55;6.55;;;3.70;;
80381;SDS011;69692;55.820;37.490;2023-11-22T13:57:22;4.35;;;3.45;;
80381;SDS011;69692;55.820;37.490;2023-11-22T13:59:48;4.25;;;2.75;;
80381;SDS011;69692;55.820;37.490;2023-11-22T14:02:14;5.93;;;3.50;;
80381;SDS011;69692;55.820;37.490;2023-11-22T14:04:41;5.50;;;3.30;;
80381;SDS011;69692;55.820;37.490;2023-11-22T14:07:07;4.35;;;3.42;;
80381;SDS011;69692;55.820;37.490;2023-11-22T14:09:33;5.13;;;3.75;;
80381;SDS011;69692;55.820;37.490;2023-11-22T14:12:02;7.57;;;4.45;;
80381;SDS011;69692;55.820;37.490;2023-11-22T14:14:28;20.05;;;10.43;;
80381;SDS011;69692;55.820;37.490;2023-11-22T14:16:54;37.47;;;15.73;;
80381;SDS011;69692;55.820;37.490;2023-11-22T14:19:22;23.83;;;12.68;;
80381;SDS011;69692;55.820;37.490;2023-11-22T14:21:48;6.15;;;4.22;;
80381;SDS011;69692;55.820;37.490;2023-11-22T14:24:14;10.13;;;4.47;;
80381;SDS011;69692;55.820;37.490;2023-11-22T14:26:40;6.20;;;4.45;;
80381;SDS011;69692;55.820;37.490;2023-11-22T14:29:06;5.03;;;3.97;;
80381;SDS011;69692;55.820;37.490;2023-11-22T14:31:32;6.88;;;4.22;;
80381;SDS011;69692;55.820;37.490;2023-11-22T14:33:58;5.85;;;4.78;;
80381;SDS011;69692;55.820;37.490;2023-11-22T14:36:24;7.70;;;4.70;;
80381;SDS011;69692;55.820;37.490;2023-11-22T14:38:51;4.90;;;3.90;;
80381;SDS011;69692;55.820;37.490;2023-11-22T14:41:22;8.55;;;4.90;;
80381;SDS011;69692;55.820;37.490;2023-11-22T14:43:48;7.15;;;4.00;;